Detalii statie SOMALEX GHIMPATI [0000198E]

Toti senzorii

Date Temperatura solului [C]Precipitatii [mm]Voltaj baterie [mV]Leaf Wetness [Min]HC Air temperature [C]HC Relative humidity [%]Punctul de roua [C]
medieminmaxsumaultimatimpmedieminmaxmediemediemin
2019-10-17 23:00:00 15 15 15 0 6854 10.46 10.44 10.48 0 0 0
2019-10-17 23:10:00 14.9 14.9 14.9 0 6816 10.47 10.44 10.51 0 0 0
2019-10-17 23:20:00 14.8 14.8 14.9 0 6844 10.34 10.3 10.38 0 0 0
2019-10-17 23:30:00 14.8 14.7 14.9 0 6854 10.26 10.24 10.28 0 0 0
2019-10-17 23:40:00 14.9 14.9 14.9 0 6844 10.31 10.26 10.37 0 0 0
2019-10-17 23:50:00 14.7 14.7 14.8 0 6854 10.29 10.24 10.34 0 0 0
2019-10-18 00:00:00 14.7 14.7 14.7 0 6844 10.15 10.14 10.16 0 0 0
2019-10-18 00:10:00 14.7 14.7 14.7 0 6786 9.98 9.97 9.99 0 0 0
2019-10-18 00:20:00 14.7 14.6 14.8 0 6826 9.89 9.88 9.9 0 0 0
2019-10-18 00:30:00 14.6 14.6 14.7 0 6834 9.82 9.82 9.83 0 0 0
2019-10-18 00:40:00 14.6 14.6 14.7 0 6834 9.83 9.82 9.85 0 0 0
2019-10-18 00:50:00 14.6 14.5 14.7 0 6844 9.83 9.78 9.89 0 0 0
2019-10-18 01:00:00 14.5 14.5 14.5 0 6844 9.58 9.49 9.67 0 0 0
2019-10-18 01:10:00 14.5 14.5 14.5 0 6806 9.36 9.27 9.45 0 0 0
2019-10-18 01:20:00 14.5 14.5 14.5 0 6834 8.9 8.8 9 0 0 0
2019-10-18 01:30:00 14.4 14.4 14.4 0 6826 8.7 8.64 8.76 0 0 0
2019-10-18 01:40:00 14.4 14.4 14.4 0 6834 8.43 8.36 8.5 0 0 0
2019-10-18 01:50:00 14.4 14.4 14.4 0 6844 8.18 8.14 8.23 0 0 0
2019-10-18 02:00:00 14.4 14.4 14.4 0 6834 7.94 7.89 8 0 0 0
2019-10-18 02:10:00 14.2 14.2 14.2 0 6796 7.72 7.71 7.74 0 0 0
2019-10-18 02:20:00 14.3 14.3 14.3 0 6816 7.91 7.86 7.97 0 0 0
2019-10-18 02:30:00 14.1 14.1 14.2 0 6816 7.69 7.59 7.8 0 0 0
2019-10-18 02:40:00 14.1 14 14.3 0 6826 7.68 7.64 7.72 0 0 0
2019-10-18 02:50:00 14.1 14.1 14.1 0 6826 7.48 7.39 7.57 0 0 0
2019-10-18 03:00:00 13.9 13.9 14 0 6834 7.18 7.14 7.23 0 0 0
2019-10-18 03:10:00 14.1 14 14.2 0 6786 7.05 7.02 7.09 0 0 0
2019-10-18 03:20:00 13.9 13.8 14 0 6816 7.23 7.15 7.32 0 0 0
2019-10-18 03:30:00 14.1 14 14.2 0 6806 7.41 7.41 7.42 0 0 0
2019-10-18 03:40:00 14 14 14 0 6826 7.49 7.47 7.51 0 0 0
2019-10-18 03:50:00 13.9 13.9 14 0 6816 7.52 7.5 7.54 0 0 0
2019-10-18 04:00:00 13.9 13.9 13.9 0 6826 7.53 7.5 7.56 0 0 0
2019-10-18 04:10:00 13.9 13.9 13.9 0 6776 7.66 7.65 7.67 0 0 0
2019-10-18 04:20:00 13.8 13.7 13.9 0 6806 7.66 7.64 7.69 0 0 0
2019-10-18 04:30:00 13.9 13.9 13.9 0 6806 7.75 7.72 7.78 0 0 0
2019-10-18 04:40:00 13.8 13.7 13.9 0 6816 7.85 7.81 7.89 0 0 0
2019-10-18 04:50:00 13.9 13.9 13.9 0 6806 7.88 7.87 7.89 0 0 0
2019-10-18 05:00:00 13.7 13.7 13.8 0 6816 7.88 7.87 7.89 0 0 0
2019-10-18 05:10:00 13.8 13.8 13.8 0 6766 7.92 7.87 7.97 0 0 0
2019-10-18 05:20:00 13.8 13.8 13.8 0 6786 8.02 7.99 8.06 0 0 0
2019-10-18 05:30:00 13.8 13.8 13.8 0 6786 8.07 8.05 8.09 0 0 0
2019-10-18 05:40:00 13.7 13.7 13.8 0 6806 8.09 8.09 8.1 0 0 0
2019-10-18 05:50:00 13.7 13.6 13.8 0 6796 8.11 8.09 8.14 0 0 0
2019-10-18 06:00:00 13.7 13.6 13.8 0 6796 8.26 8.25 8.28 0 0 0
2019-10-18 06:10:00 13.6 13.6 13.6 0 6756 8.41 8.39 8.44 0 0 0
2019-10-18 06:20:00 13.6 13.6 13.7 0 6786 8.4 8.39 8.41 0 0 0
2019-10-18 06:30:00 13.6 13.6 13.6 0 6786 8.35 8.35 8.36 0 0 0
2019-10-18 06:40:00 13.6 13.6 13.6 0 6786 8.35 8.32 8.39 0 0 0
2019-10-18 06:50:00 13.6 13.6 13.6 0 6796 8.46 8.4 8.53 0 0 0